sensor_id;sensor_type;location;lat;lon;timestamp;pressure;altitude;pressure_sealevel;temperature;humidity
36260;BME280;22296;50.824;5.644;2023-08-20T00:01:12;101180.59;;;25.78;57.95
36260;BME280;22296;50.824;5.644;2023-08-20T00:03:40;101191.13;;;25.81;57.78
36260;BME280;22296;50.824;5.644;2023-08-20T00:06:07;101194.41;;;25.83;57.54
36260;BME280;22296;50.824;5.644;2023-08-20T00:08:34;101202.44;;;25.81;57.93
36260;BME280;22296;50.824;5.644;2023-08-20T00:11:02;101210.47;;;25.79;58.13
36260;BME280;22296;50.824;5.644;2023-08-20T00:13:29;101207.25;;;25.77;58.64
36260;BME280;22296;50.824;5.644;2023-08-20T00:15:56;101200.72;;;25.73;57.67
36260;BME280;22296;50.824;5.644;2023-08-20T00:18:23;101191.81;;;25.71;57.91
36260;BME280;22296;50.824;5.644;2023-08-20T00:20:50;101201.91;;;25.72;57.73
36260;BME280;22296;50.824;5.644;2023-08-20T00:23:17;101184.53;;;25.70;57.94
36260;BME280;22296;50.824;5.644;2023-08-20T00:25:44;101188.22;;;25.74;57.97
36260;BME280;22296;50.824;5.644;2023-08-20T00:28:11;101184.94;;;25.72;58.15
36260;BME280;22296;50.824;5.644;2023-08-20T00:30:37;101184.53;;;25.70;57.78
36260;BME280;22296;50.824;5.644;2023-08-20T00:33:05;101162.34;;;25.72;58.00
36260;BME280;22296;50.824;5.644;2023-08-20T00:35:31;101170.44;;;25.73;57.81
36260;BME280;22296;50.824;5.644;2023-08-20T00:37:58;101172.03;;;25.71;57.91
36260;BME280;22296;50.824;5.644;2023-08-20T00:40:26;101161.06;;;25.66;57.93
36260;BME280;22296;50.824;5.644;2023-08-20T00:42:52;101170.00;;;25.68;57.93
36260;BME280;22296;50.824;5.644;2023-08-20T00:45:21;101174.41;;;25.65;57.80
36260;BME280;22296;50.824;5.644;2023-08-20T00:47:50;101178.88;;;25.70;57.92
36260;BME280;22296;50.824;5.644;2023-08-20T00:50:17;101176.47;;;25.72;58.47
36260;BME280;22296;50.824;5.644;2023-08-20T00:52:46;101180.53;;;25.71;58.20
36260;BME280;22296;50.824;5.644;2023-08-20T00:55:13;101175.63;;;25.68;57.98
36260;BME280;22296;50.824;5.644;2023-08-20T00:57:40;101177.22;;;25.65;58.00
36260;BME280;22296;50.824;5.644;2023-08-20T01:00:08;101179.59;;;25.63;57.91
36260;BME280;22296;50.824;5.644;2023-08-20T01:02:36;101176.00;;;25.63;57.77
36260;BME280;22296;50.824;5.644;2023-08-20T01:05:04;101181.19;;;25.61;57.55
36260;BME280;22296;50.824;5.644;2023-08-20T01:10:06;101186.84;;;25.61;57.57
36260;BME280;22296;50.824;5.644;2023-08-20T01:12:35;101179.53;;;25.56;57.53
36260;BME280;22296;50.824;5.644;2023-08-20T01:15:02;101181.53;;;25.56;57.64
36260;BME280;22296;50.824;5.644;2023-08-20T01:17:29;101177.06;;;25.55;57.73
36260;BME280;22296;50.824;5.644;2023-08-20T01:19:58;101181.13;;;25.57;57.93
36260;BME280;22296;50.824;5.644;2023-08-20T01:28:19;101190.41;;;25.54;58.15
36260;BME280;22296;50.824;5.644;2023-08-20T01:30:46;101199.66;;;25.55;57.87
36260;BME280;22296;50.824;5.644;2023-08-20T01:33:14;101203.31;;;25.55;58.14
36260;BME280;22296;50.824;5.644;2023-08-20T01:35:41;101204.91;;;25.53;58.13
36260;BME280;22296;50.824;5.644;2023-08-20T01:38:14;101204.91;;;25.53;57.80
36260;BME280;22296;50.824;5.644;2023-08-20T01:40:41;101214.59;;;25.55;58.05
36260;BME280;22296;50.824;5.644;2023-08-20T01:43:08;101221.09;;;25.56;58.26
36260;BME280;22296;50.824;5.644;2023-08-20T01:45:35;101216.59;;;25.51;57.98
36260;BME280;22296;50.824;5.644;2023-08-20T01:48:02;101219.03;;;25.53;58.54
36260;BME280;22296;50.824;5.644;2023-08-20T01:50:31;101211.72;;;25.52;57.95
36260;BME280;22296;50.824;5.644;2023-08-20T01:52:57;101216.53;;;25.47;58.13
36260;BME280;22296;50.824;5.644;2023-08-20T01:55:24;101223.00;;;25.48;58.19
36260;BME280;22296;50.824;5.644;2023-08-20T01:57:51;101222.19;;;25.47;58.11
36260;BME280;22296;50.824;5.644;2023-08-20T02:00:17;101222.19;;;25.47;58.23
36260;BME280;22296;50.824;5.644;2023-08-20T02:02:44;101221.28;;;25.43;58.37
36260;BME280;22296;50.824;5.644;2023-08-20T02:05:11;101224.56;;;25.45;58.49
36260;BME280;22296;50.824;5.644;2023-08-20T02:07:39;101223.03;;;25.52;58.64
36260;BME280;22296;50.824;5.644;2023-08-20T02:10:06;101217.44;;;25.55;58.04
36260;BME280;22296;50.824;5.644;2023-08-20T02:12:33;101223.50;;;25.57;58.29
36260;BME280;22296;50.824;5.644;2023-08-20T02:14:59;101221.50;;;25.58;58.36
36260;BME280;22296;50.824;5.644;2023-08-20T02:17:26;101228.78;;;25.59;58.05
36260;BME280;22296;50.824;5.644;2023-08-20T02:19:53;101229.22;;;25.61;58.00
36260;BME280;22296;50.824;5.644;2023-08-20T02:22:19;101230.44;;;25.60;58.19
36260;BME280;22296;50.824;5.644;2023-08-20T02:24:47;101233.69;;;25.62;58.12
36260;BME280;22296;50.824;5.644;2023-08-20T02:27:15;101228.78;;;25.59;58.42
36260;BME280;22296;50.824;5.644;2023-08-20T02:29:43;101226.38;;;25.61;58.19
36260;BME280;22296;50.824;5.644;2023-08-20T02:32:13;101232.03;;;25.61;58.15
36260;BME280;22296;50.824;5.644;2023-08-20T02:34:40;101236.91;;;25.64;58.08
36260;BME280;22296;50.824;5.644;2023-08-20T02:37:07;101234.84;;;25.61;58.36
36260;BME280;22296;50.824;5.644;2023-08-20T02:39:34;101240.47;;;25.57;58.42
36260;BME280;22296;50.824;5.644;2023-08-20T02:42:00;101244.97;;;25.62;58.39
36260;BME280;22296;50.824;5.644;2023-08-20T02:44:27;101246.63;;;25.63;58.02
36260;BME280;22296;50.824;5.644;2023-08-20T02:46:54;101250.63;;;25.62;58.49
36260;BME280;22296;50.824;5.644;2023-08-20T02:49:23;101244.97;;;25.62;58.07
36260;BME280;22296;50.824;5.644;2023-08-20T02:51:49;101257.91;;;25.63;58.13
36260;BME280;22296;50.824;5.644;2023-08-20T02:54:16;101255.41;;;25.58;58.32
36260;BME280;22296;50.824;5.644;2023-08-20T02:56:43;101262.75;;;25.62;58.53
36260;BME280;22296;50.824;5.644;2023-08-20T02:59:10;101264.31;;;25.60;58.66
36260;BME280;22296;50.824;5.644;2023-08-20T03:01:36;101270.75;;;25.57;58.56
36260;BME280;22296;50.824;5.644;2023-08-20T03:04:04;101281.28;;;25.60;58.54
36260;BME280;22296;50.824;5.644;2023-08-20T03:06:30;101278.06;;;25.61;58.47
36260;BME280;22296;50.824;5.644;2023-08-20T03:08:58;101267.56;;;25.62;59.01
36260;BME280;22296;50.824;5.644;2023-08-20T03:11:25;101269.91;;;25.56;58.85
36260;BME280;22296;50.824;5.644;2023-08-20T03:13:52;101273.09;;;25.55;58.26
36260;BME280;22296;50.824;5.644;2023-08-20T03:16:18;101272.75;;;25.56;58.52
36260;BME280;22296;50.824;5.644;2023-08-20T03:18:45;101278.00;;;25.58;58.34
36260;BME280;22296;50.824;5.644;2023-08-20T03:21:12;101278.44;;;25.60;58.28
36260;BME280;22296;50.824;5.644;2023-08-20T03:23:39;101275.56;;;25.56;58.50
36260;BME280;22296;50.824;5.644;2023-08-20T03:26:06;101271.94;;;25.56;58.68
36260;BME280;22296;50.824;5.644;2023-08-20T03:28:32;101269.09;;;25.56;58.46
36260;BME280;22296;50.824;5.644;2023-08-20T03:31:00;101265.84;;;25.54;58.51
36260;BME280;22296;50.824;5.644;2023-08-20T03:33:31;101261.03;;;25.54;58.60
36260;BME280;22296;50.824;5.644;2023-08-20T03:35:58;101260.63;;;25.56;58.33
36260;BME280;22296;50.824;5.644;2023-08-20T03:38:26;101258.56;;;25.53;58.22
36260;BME280;22296;50.824;5.644;2023-08-20T03:40:54;101266.63;;;25.51;58.47
36260;BME280;22296;50.824;5.644;2023-08-20T03:43:21;101262.16;;;25.49;58.13
36260;BME280;22296;50.824;5.644;2023-08-20T03:45:52;101269.88;;;25.53;58.67
36260;BME280;22296;50.824;5.644;2023-08-20T03:48:19;101272.25;;;25.51;58.56
36260;BME280;22296;50.824;5.644;2023-08-20T03:50:47;101267.38;;;25.47;58.49
36260;BME280;22296;50.824;5.644;2023-08-20T03:53:15;101268.22;;;25.52;58.57
36260;BME280;22296;50.824;5.644;2023-08-20T03:55:47;101273.88;;;25.52;58.78
36260;BME280;22296;50.824;5.644;2023-08-20T03:58:15;101265.78;;;25.50;58.53
36260;BME280;22296;50.824;5.644;2023-08-20T04:00:43;101270.63;;;25.49;58.49
36260;BME280;22296;50.824;5.644;2023-08-20T04:03:10;101267.38;;;25.47;58.26
36260;BME280;22296;50.824;5.644;2023-08-20T04:05:37;101271.34;;;25.46;58.73
36260;BME280;22296;50.824;5.644;2023-08-20T04:08:06;101277.75;;;25.43;58.53
36260;BME280;22296;50.824;5.644;2023-08-20T04:10:32;101286.63;;;25.42;58.54
36260;BME280;22296;50.824;5.644;2023-08-20T04:13:00;101287.88;;;25.44;58.85
36260;BME280;22296;50.824;5.644;2023-08-20T04:15:27;101290.63;;;25.41;58.98
36260;BME280;22296;50.824;5.644;2023-08-20T04:17:54;101289.81;;;25.40;59.02
36260;BME280;22296;50.824;5.644;2023-08-20T04:20:21;101296.34;;;25.44;58.81
36260;BME280;22296;50.824;5.644;2023-08-20T04:22:48;101303.56;;;25.42;58.89
36260;BME280;22296;50.824;5.644;2023-08-20T04:25:15;101299.94;;;25.41;58.79
36260;BME280;22296;50.824;5.644;2023-08-20T04:27:42;101302.75;;;25.41;58.58
36260;BME280;22296;50.824;5.644;2023-08-20T04:30:09;101295.03;;;25.38;58.85
36260;BME280;22296;50.824;5.644;2023-08-20T04:32:36;101293.03;;;25.39;58.92
36260;BME280;22296;50.824;5.644;2023-08-20T04:35:04;101302.69;;;25.38;58.85
36260;BME280;22296;50.824;5.644;2023-08-20T04:37:32;101290.56;;;25.37;58.74
36260;BME280;22296;50.824;5.644;2023-08-20T04:40:00;101300.69;;;25.38;58.76
36260;BME280;22296;50.824;5.644;2023-08-20T04:42:28;101303.94;;;25.40;58.78
36260;BME280;22296;50.824;5.644;2023-08-20T04:44:55;101307.53;;;25.37;58.71
36260;BME280;22296;50.824;5.644;2023-08-20T04:47:23;101295.38;;;25.33;58.71
36260;BME280;22296;50.824;5.644;2023-08-20T04:49:50;101305.03;;;25.32;58.97
36260;BME280;22296;50.824;5.644;2023-08-20T04:52:18;101303.47;;;25.35;58.72
36260;BME280;22296;50.824;5.644;2023-08-20T04:54:47;101303.38;;;25.31;58.71
36260;BME280;22296;50.824;5.644;2023-08-20T04:57:14;101303.38;;;25.31;58.71
36260;BME280;22296;50.824;5.644;2023-08-20T04:59:43;101301.78;;;25.30;58.70
36260;BME280;22296;50.824;5.644;2023-08-20T05:02:20;101307.78;;;25.29;58.74
36260;BME280;22296;50.824;5.644;2023-08-20T05:04:53;101305.78;;;25.29;58.57
36260;BME280;22296;50.824;5.644;2023-08-20T05:07:20;101301.78;;;25.30;58.83
36260;BME280;22296;50.824;5.644;2023-08-20T05:09:47;101310.63;;;25.29;58.69
36260;BME280;22296;50.824;5.644;2023-08-20T05:12:14;101311.38;;;25.26;58.79
36260;BME280;22296;50.824;5.644;2023-08-20T05:14:40;101305.78;;;25.29;58.94
36260;BME280;22296;50.824;5.644;2023-08-20T05:17:07;101319.97;;;25.33;58.76
36260;BME280;22296;50.824;5.644;2023-08-20T05:19:35;101315.44;;;25.28;58.61
36260;BME280;22296;50.824;5.644;2023-08-20T05:22:02;101311.34;;;25.22;58.82
36260;BME280;22296;50.824;5.644;2023-08-20T05:24:32;101325.00;;;25.20;58.93
36260;BME280;22296;50.824;5.644;2023-08-20T05:27:10;101319.81;;;25.22;59.14
36260;BME280;22296;50.824;5.644;2023-08-20T05:29:37;101323.06;;;25.24;59.00
36260;BME280;22296;50.824;5.644;2023-08-20T05:32:06;101333.09;;;25.22;59.10
36260;BME280;22296;50.824;5.644;2023-08-20T05:34:34;101329.88;;;25.23;58.84
36260;BME280;22296;50.824;5.644;2023-08-20T05:37:01;101324.31;;;25.27;59.10
36260;BME280;22296;50.824;5.644;2023-08-20T05:39:30;101326.63;;;25.21;59.06
36260;BME280;22296;50.824;5.644;2023-08-20T05:41:57;101334.72;;;25.23;59.23
36260;BME280;22296;50.824;5.644;2023-08-20T05:44:25;101333.94;;;25.22;59.20
36260;BME280;22296;50.824;5.644;2023-08-20T05:46:52;101332.28;;;25.21;59.04
36260;BME280;22296;50.824;5.644;2023-08-20T05:49:22;101339.56;;;25.22;59.16
36260;BME280;22296;50.824;5.644;2023-08-20T05:51:49;101339.13;;;25.20;58.99
36260;BME280;22296;50.824;5.644;2023-08-20T05:54:17;101339.56;;;25.22;59.23
36260;BME280;22296;50.824;5.644;2023-08-20T05:56:44;101336.28;;;25.20;59.21
36260;BME280;22296;50.824;5.644;2023-08-20T05:59:11;101329.03;;;25.19;59.39
36260;BME280;22296;50.824;5.644;2023-08-20T06:01:38;101325.81;;;25.21;58.97
36260;BME280;22296;50.824;5.644;2023-08-20T06:04:06;101328.28;;;25.22;59.31
36260;BME280;22296;50.824;5.644;2023-08-20T06:06:32;101332.28;;;25.21;59.35
36260;BME280;22296;50.824;5.644;2023-08-20T06:08:59;101332.28;;;25.21;59.13
36260;BME280;22296;50.824;5.644;2023-08-20T06:11:34;101329.81;;;25.20;59.18
36260;BME280;22296;50.824;5.644;2023-08-20T06:14:01;101333.47;;;25.20;59.21
36260;BME280;22296;50.824;5.644;2023-08-20T06:16:29;101331.09;;;25.22;59.08
36260;BME280;22296;50.824;5.644;2023-08-20T06:18:57;101332.72;;;25.23;59.27
36260;BME280;22296;50.824;5.644;2023-08-20T06:21:28;101327.47;;;25.22;59.39
36260;BME280;22296;50.824;5.644;2023-08-20T06:23:55;101336.75;;;25.22;59.17
36260;BME280;22296;50.824;5.644;2023-08-20T06:26:22;101324.31;;;25.27;59.33
36260;BME280;22296;50.824;5.644;2023-08-20T06:28:49;101319.09;;;25.29;59.03
36260;BME280;22296;50.824;5.644;2023-08-20T06:31:16;101328.44;;;25.33;59.09
36260;BME280;22296;50.824;5.644;2023-08-20T06:33:43;101324.44;;;25.34;59.04
36260;BME280;22296;50.824;5.644;2023-08-20T06:36:10;101321.16;;;25.32;59.19
36260;BME280;22296;50.824;5.644;2023-08-20T06:38:37;101315.13;;;25.33;59.09
36260;BME280;22296;50.824;5.644;2023-08-20T06:41:03;101315.97;;;25.34;59.28
36260;BME280;22296;50.824;5.644;2023-08-20T06:43:30;101312.75;;;25.35;59.19
36260;BME280;22296;50.824;5.644;2023-08-20T06:45:57;101316.00;;;25.37;59.05
36260;BME280;22296;50.824;5.644;2023-08-20T06:48:24;101309.97;;;25.39;58.89
36260;BME280;22296;50.824;5.644;2023-08-20T06:50:51;101314.88;;;25.42;59.12
36260;BME280;22296;50.824;5.644;2023-08-20T06:53:18;101314.81;;;25.38;58.89
36260;BME280;22296;50.824;5.644;2023-08-20T06:55:45;101318.81;;;25.37;59.28
36260;BME280;22296;50.824;5.644;2023-08-20T06:58:12;101319.28;;;25.39;58.98
36260;BME280;22296;50.824;5.644;2023-08-20T07:00:38;101319.69;;;25.41;59.00
36260;BME280;22296;50.824;5.644;2023-08-20T07:03:05;101318.50;;;25.42;59.20
36260;BME280;22296;50.824;5.644;2023-08-20T07:05:32;101329.50;;;25.47;58.93
36260;BME280;22296;50.824;5.644;2023-08-20T07:07:59;101327.78;;;25.43;58.97
36260;BME280;22296;50.824;5.644;2023-08-20T07:10:26;101335.88;;;25.44;58.87
36260;BME280;22296;50.824;5.644;2023-08-20T07:12:55;101337.88;;;25.44;58.89
36260;BME280;22296;50.824;5.644;2023-08-20T07:15:21;101336.66;;;25.41;59.00
36260;BME280;22296;50.824;5.644;2023-08-20T07:17:48;101343.19;;;25.45;58.75
36260;BME280;22296;50.824;5.644;2023-08-20T07:20:15;101343.97;;;25.46;58.67
36260;BME280;22296;50.824;5.644;2023-08-20T07:22:42;101340.34;;;25.45;59.03
36260;BME280;22296;50.824;5.644;2023-08-20T07:25:09;101339.13;;;25.46;59.07
36260;BME280;22296;50.824;5.644;2023-08-20T07:27:37;101337.53;;;25.45;58.69
36260;BME280;22296;50.824;5.644;2023-08-20T07:30:04;101333.50;;;25.46;58.83
36260;BME280;22296;50.824;5.644;2023-08-20T07:32:31;101335.88;;;25.44;58.92
36260;BME280;22296;50.824;5.644;2023-08-20T07:34:58;101337.53;;;25.45;58.71
36260;BME280;22296;50.824;5.644;2023-08-20T07:37:25;101337.13;;;25.47;58.91
36260;BME280;22296;50.824;5.644;2023-08-20T07:39:52;101336.78;;;25.48;58.58
36260;BME280;22296;50.824;5.644;2023-08-20T07:42:19;101339.13;;;25.46;59.18
36260;BME280;22296;50.824;5.644;2023-08-20T07:44:45;101336.31;;;25.46;58.71
36260;BME280;22296;50.824;5.644;2023-08-20T07:47:12;101333.50;;;25.46;58.78
36260;BME280;22296;50.824;5.644;2023-08-20T07:49:39;101342.41;;;25.48;59.12
36260;BME280;22296;50.824;5.644;2023-08-20T07:52:06;101340.81;;;25.47;58.76
36260;BME280;22296;50.824;5.644;2023-08-20T07:54:32;101336.78;;;25.48;58.97
36260;BME280;22296;50.824;5.644;2023-08-20T07:56:59;101342.06;;;25.50;58.89
36260;BME280;22296;50.824;5.644;2023-08-20T07:59:26;101336.31;;;25.46;58.73
36260;BME280;22296;50.824;5.644;2023-08-20T08:01:53;101339.97;;;25.47;59.02
36260;BME280;22296;50.824;5.644;2023-08-20T08:04:20;101348.88;;;25.49;59.09
36260;BME280;22296;50.824;5.644;2023-08-20T08:06:47;101345.59;;;25.47;59.01
36260;BME280;22296;50.824;5.644;2023-08-20T08:09:27;101348.06;;;25.48;59.13
36260;BME280;22296;50.824;5.644;2023-08-20T08:11:54;101343.25;;;25.49;59.19
36260;BME280;22296;50.824;5.644;2023-08-20T08:14:21;101349.28;;;25.47;58.97
36260;BME280;22296;50.824;5.644;2023-08-20T08:16:48;101351.34;;;25.51;58.82
36260;BME280;22296;50.824;5.644;2023-08-20T08:19:16;101350.91;;;25.48;58.69
36260;BME280;22296;50.824;5.644;2023-08-20T08:21:43;101360.19;;;25.49;59.00
36260;BME280;22296;50.824;5.644;2023-08-20T08:24:11;101357.75;;;25.47;59.08
36260;BME280;22296;50.824;5.644;2023-08-20T08:26:39;101364.25;;;25.52;58.92
36260;BME280;22296;50.824;5.644;2023-08-20T08:29:06;101363.47;;;25.51;59.16
36260;BME280;22296;50.824;5.644;2023-08-20T08:31:34;101377.19;;;25.53;58.81
36260;BME280;22296;50.824;5.644;2023-08-20T08:34:02;101373.94;;;25.51;59.05
36260;BME280;22296;50.824;5.644;2023-08-20T08:36:30;101378.78;;;25.50;58.70
36260;BME280;22296;50.824;5.644;2023-08-20T08:38:56;101377.97;;;25.49;58.70
36260;BME280;22296;50.824;5.644;2023-08-20T08:41:25;101373.94;;;25.51;59.04
36260;BME280;22296;50.824;5.644;2023-08-20T08:43:53;101376.78;;;25.51;58.79
36260;BME280;22296;50.824;5.644;2023-08-20T08:46:20;101382.41;;;25.51;59.10
36260;BME280;22296;50.824;5.644;2023-08-20T08:48:48;101378.78;;;25.50;59.00
36260;BME280;22296;50.824;5.644;2023-08-20T08:51:16;101380.41;;;25.51;59.09
36260;BME280;22296;50.824;5.644;2023-08-20T08:53:43;101383.25;;;25.51;58.86
36260;BME280;22296;50.824;5.644;2023-08-20T08:56:12;101373.94;;;25.51;58.83
36260;BME280;22296;50.824;5.644;2023-08-20T08:58:39;101382.03;;;25.52;59.02
36260;BME280;22296;50.824;5.644;2023-08-20T09:01:06;101373.94;;;25.51;58.77
36260;BME280;22296;50.824;5.644;2023-08-20T09:03:33;101382.84;;;25.53;58.91
36260;BME280;22296;50.824;5.644;2023-08-20T09:06:01;101380.41;;;25.51;58.72
36260;BME280;22296;50.824;5.644;2023-08-20T09:08:31;101375.56;;;25.52;59.27
36260;BME280;22296;50.824;5.644;2023-08-20T09:10:59;101376.00;;;25.54;58.98
36260;BME280;22296;50.824;5.644;2023-08-20T09:15:59;101365.13;;;25.56;58.80
36260;BME280;22296;50.824;5.644;2023-08-20T09:18:26;101374.38;;;25.53;58.81
36260;BME280;22296;50.824;5.644;2023-08-20T09:20:53;101368.28;;;25.51;58.80
36260;BME280;22296;50.824;5.644;2023-08-20T09:23:19;101365.47;;;25.51;58.75
36260;BME280;22296;50.824;5.644;2023-08-20T09:25:46;101373.94;;;25.51;58.99
36260;BME280;22296;50.824;5.644;2023-08-20T09:28:14;101365.84;;;25.49;58.73
36260;BME280;22296;50.824;5.644;2023-08-20T09:30:54;101371.88;;;25.47;58.48
36260;BME280;22296;50.824;5.644;2023-08-20T09:33:21;101374.31;;;25.49;58.52
36260;BME280;22296;50.824;5.644;2023-08-20T09:35:49;101369.13;;;25.51;58.73
36260;BME280;22296;50.824;5.644;2023-08-20T09:38:19;101365.47;;;25.51;58.45
36260;BME280;22296;50.824;5.644;2023-08-20T09:40:52;101364.25;;;25.52;58.41
36260;BME280;22296;50.824;5.644;2023-08-20T09:43:24;101364.25;;;25.52;58.43
36260;BME280;22296;50.824;5.644;2023-08-20T09:45:55;101363.50;;;25.55;58.19
36260;BME280;22296;50.824;5.644;2023-08-20T09:48:24;101366.78;;;25.57;58.35
36260;BME280;22296;50.824;5.644;2023-08-20T09:50:55;101365.13;;;25.56;58.29
36260;BME280;22296;50.824;5.644;2023-08-20T09:53:38;101356.66;;;25.56;58.43
36260;BME280;22296;50.824;5.644;2023-08-20T09:56:37;101360.69;;;25.55;58.52
36260;BME280;22296;50.824;5.644;2023-08-20T09:59:00;101360.31;;;25.56;58.49
36260;BME280;22296;50.824;5.644;2023-08-20T10:01:29;101371.59;;;25.56;58.38
36260;BME280;22296;50.824;5.644;2023-08-20T10:03:57;101362.75;;;25.58;58.31
36260;BME280;22296;50.824;5.644;2023-08-20T10:06:24;101370.47;;;25.61;58.17
36260;BME280;22296;50.824;5.644;2023-08-20T10:08:53;101369.28;;;25.62;58.32
36260;BME280;22296;50.824;5.644;2023-08-20T10:11:20;101368.03;;;25.59;58.45
36260;BME280;22296;50.824;5.644;2023-08-20T10:13:47;101366.03;;;25.60;58.39
36260;BME280;22296;50.824;5.644;2023-08-20T10:16:17;101367.63;;;25.61;58.43
36260;BME280;22296;50.824;5.644;2023-08-20T10:18:47;101369.28;;;25.62;58.27
36260;BME280;22296;50.824;5.644;2023-08-20T10:21:14;101376.16;;;25.64;58.19
36260;BME280;22296;50.824;5.644;2023-08-20T10:23:41;101374.16;;;25.65;57.90
36260;BME280;22296;50.824;5.644;2023-08-20T10:26:10;101375.78;;;25.66;58.49
36260;BME280;22296;50.824;5.644;2023-08-20T10:28:37;101371.75;;;25.67;58.34
36260;BME280;22296;50.824;5.644;2023-08-20T10:31:11;101380.66;;;25.69;58.19
36260;BME280;22296;50.824;5.644;2023-08-20T10:33:49;101369.38;;;25.69;58.22
36260;BME280;22296;50.824;5.644;2023-08-20T10:36:19;101369.38;;;25.69;58.06
36260;BME280;22296;50.824;5.644;2023-08-20T10:38:50;101379.88;;;25.68;58.45
36260;BME280;22296;50.824;5.644;2023-08-20T10:41:24;101375.00;;;25.69;58.45
36260;BME280;22296;50.824;5.644;2023-08-20T10:43:52;101374.66;;;25.70;58.46
36260;BME280;22296;50.824;5.644;2023-08-20T10:46:21;101374.25;;;25.72;58.36
36260;BME280;22296;50.824;5.644;2023-08-20T10:48:52;101372.69;;;25.74;58.32
36260;BME280;22296;50.824;5.644;2023-08-20T11:01:40;101361.00;;;25.76;58.50
36260;BME280;22296;50.824;5.644;2023-08-20T11:04:09;101361.44;;;25.78;58.15
36260;BME280;22296;50.824;5.644;2023-08-20T11:06:36;101362.25;;;25.78;58.39
36260;BME280;22296;50.824;5.644;2023-08-20T11:09:03;101360.66;;;25.81;58.28
36260;BME280;22296;50.824;5.644;2023-08-20T11:11:30;101356.66;;;25.82;58.38
36260;BME280;22296;50.824;5.644;2023-08-20T11:14:05;101351.84;;;25.86;58.38
36260;BME280;22296;50.824;5.644;2023-08-20T11:16:34;101353.88;;;25.85;58.22
36260;BME280;22296;50.824;5.644;2023-08-20T11:19:03;101347.84;;;25.87;58.21
36260;BME280;22296;50.824;5.644;2023-08-20T11:21:36;101340.59;;;25.89;58.42
36260;BME280;22296;50.824;5.644;2023-08-20T11:24:04;101339.78;;;25.89;58.14
36260;BME280;22296;50.824;5.644;2023-08-20T11:26:33;101334.09;;;25.85;58.62
36260;BME280;22296;50.824;5.644;2023-08-20T11:29:14;101338.94;;;25.85;58.10
36260;BME280;22296;50.824;5.644;2023-08-20T11:31:49;101341.00;;;25.88;58.28
36260;BME280;22296;50.824;5.644;2023-08-20T11:34:18;101333.72;;;25.87;58.38
36260;BME280;22296;50.824;5.644;2023-08-20T11:36:45;101340.25;;;25.91;58.62
36260;BME280;22296;50.824;5.644;2023-08-20T11:39:12;101336.59;;;25.90;58.26
36260;BME280;22296;50.824;5.644;2023-08-20T11:41:40;101342.31;;;25.94;58.22
36260;BME280;22296;50.824;5.644;2023-08-20T11:44:10;101329.34;;;25.93;58.01
36260;BME280;22296;50.824;5.644;2023-08-20T11:46:44;101333.44;;;25.95;58.25
36260;BME280;22296;50.824;5.644;2023-08-20T11:49:12;101331.00;;;25.94;58.18
36260;BME280;22296;50.824;5.644;2023-08-20T11:51:42;101331.84;;;25.98;58.23
36260;BME280;22296;50.824;5.644;2023-08-20T11:54:13;101327.44;;;26.00;58.01
36260;BME280;22296;50.824;5.644;2023-08-20T11:56:48;101319.75;;;26.01;57.80
36260;BME280;22296;50.824;5.644;2023-08-20T11:59:17;101327.06;;;26.02;58.24
36260;BME280;22296;50.824;5.644;2023-08-20T12:01:51;101325.41;;;26.01;57.97
36260;BME280;22296;50.824;5.644;2023-08-20T12:04:18;101322.22;;;26.02;58.02
36260;BME280;22296;50.824;5.644;2023-08-20T12:07:01;101329.53;;;26.07;58.08
36260;BME280;22296;50.824;5.644;2023-08-20T12:09:29;101323.50;;;26.09;57.86
36260;BME280;22296;50.824;5.644;2023-08-20T12:11:56;101332.03;;;26.12;57.79
36260;BME280;22296;50.824;5.644;2023-08-20T12:14:24;101326.88;;;26.18;57.90
36260;BME280;22296;50.824;5.644;2023-08-20T12:16:52;101320.44;;;26.21;57.79
36260;BME280;22296;50.824;5.644;2023-08-20T12:19:20;101323.25;;;26.17;57.74
36260;BME280;22296;50.824;5.644;2023-08-20T12:21:47;101319.16;;;26.15;57.63
36260;BME280;22296;50.824;5.644;2023-08-20T12:24:14;101319.16;;;26.15;57.73
36260;BME280;22296;50.824;5.644;2023-08-20T12:26:41;101313.13;;;26.16;57.72
36260;BME280;22296;50.824;5.644;2023-08-20T12:29:08;101307.47;;;26.16;57.62
36260;BME280;22296;50.824;5.644;2023-08-20T12:31:35;101302.19;;;26.15;57.62
36260;BME280;22296;50.824;5.644;2023-08-20T12:34:02;101310.22;;;26.13;57.68
36260;BME280;22296;50.824;5.644;2023-08-20T12:36:30;101304.22;;;26.14;57.64
36260;BME280;22296;50.824;5.644;2023-08-20T12:38:57;101301.81;;;26.16;57.49
36260;BME280;22296;50.824;5.644;2023-08-20T12:41:23;101305.94;;;26.22;57.77
36260;BME280;22296;50.824;5.644;2023-08-20T12:43:50;101308.28;;;26.17;57.48
36260;BME280;22296;50.824;5.644;2023-08-20T12:46:17;101299.41;;;26.18;57.42
36260;BME280;22296;50.824;5.644;2023-08-20T12:48:46;101305.06;;;26.18;57.58
36260;BME280;22296;50.824;5.644;2023-08-20T12:51:12;101306.28;;;26.17;57.48
36260;BME280;22296;50.824;5.644;2023-08-20T12:53:40;101300.22;;;26.19;57.75
36260;BME280;22296;50.824;5.644;2023-08-20T12:56:07;101305.50;;;26.20;57.58
36260;BME280;22296;50.824;5.644;2023-08-20T12:58:34;101303.09;;;26.22;57.43
36260;BME280;22296;50.824;5.644;2023-08-20T13:01:01;101301.47;;;26.21;57.57
36260;BME280;22296;50.824;5.644;2023-08-20T13:03:28;101297.50;;;26.26;57.65
36260;BME280;22296;50.824;5.644;2023-08-20T13:05:56;101292.31;;;26.31;57.47
36260;BME280;22296;50.824;5.644;2023-08-20T13:08:24;101287.84;;;26.30;57.44
36260;BME280;22296;50.824;5.644;2023-08-20T13:10:56;101295.13;;;26.31;57.34
36260;BME280;22296;50.824;5.644;2023-08-20T13:13:24;101287.44;;;26.32;57.33
36260;BME280;22296;50.824;5.644;2023-08-20T13:15:52;101293.09;;;26.32;57.40